Lilly, Georgia
Current Conditions -  °F | °C
As of 10:15 AM on Friday 19 Dec 2014 (Local Time) from KCKF Reporting Station
Clear Clear  
Wind Chill: 47°   Ceiling: Unl
Heat Index: 47°   Visibility: 10mi
Dew Point: 38°   Wind: 0mph
Humidity: 69%   Direction: NA
Pressure: 30.2"   Gusts: NA
Location:  32.15°N, 83.88°W
Report Text: KCKF 191515Z AUTO 00000KT 10SM CLR 09/03 A3020 RMK AO2 T00850031
Loading
Personal Weather Stations






























Interactive Weather Map New forecast layout! Learn more

10-Day Weather Forecast

Advertisements
Track Severe Weather on mobile